createdAt,value
2018-09-30T00:00:49.217Z,101329.00
2018-09-30T00:03:18.690Z,101331.00
2018-09-30T00:05:47.934Z,101332.00
2018-09-30T00:08:17.236Z,101326.00
2018-09-30T00:10:46.369Z,101324.00
2018-09-30T00:13:15.449Z,101323.00
2018-09-30T00:15:44.731Z,101319.00
2018-09-30T00:18:13.891Z,101327.00
2018-09-30T00:20:49.467Z,101310.00
2018-09-30T00:23:18.587Z,101318.00
2018-09-30T00:25:53.209Z,101317.00
2018-09-30T00:28:22.449Z,101303.00
2018-09-30T00:30:51.674Z,101304.00
2018-09-30T00:33:21.025Z,101294.00
2018-09-30T00:35:50.550Z,101291.00
2018-09-30T00:38:19.917Z,101290.00
2018-09-30T00:40:51.986Z,101289.00
2018-09-30T00:43:21.197Z,101284.00
2018-09-30T00:45:50.327Z,101279.00
2018-09-30T00:48:19.528Z,101276.00
2018-09-30T00:50:48.693Z,101266.00
2018-09-30T00:53:17.797Z,101266.00
2018-09-30T00:55:46.953Z,101267.00
2018-09-30T00:58:16.218Z,101262.00
2018-09-30T01:00:45.379Z,101261.00
2018-09-30T01:03:14.511Z,101278.00
2018-09-30T01:05:44.161Z,101266.00
2018-09-30T01:08:13.769Z,101262.00
2018-09-30T01:10:42.907Z,101265.00
2018-09-30T01:13:12.192Z,101247.00
2018-09-30T01:15:42.709Z,101251.00
2018-09-30T01:18:12.044Z,101256.00
2018-09-30T01:20:41.843Z,101256.00
2018-09-30T01:23:11.221Z,101251.00
2018-09-30T01:25:40.387Z,101248.00
2018-09-30T01:28:09.629Z,101250.00
2018-09-30T01:30:38.896Z,101236.00
2018-09-30T01:33:08.058Z,101241.00
2018-09-30T01:35:37.368Z,101235.00
2018-09-30T01:38:06.825Z,101240.00
2018-09-30T01:40:36.588Z,101240.00
2018-09-30T01:43:05.956Z,101239.00
2018-09-30T01:45:35.168Z,101230.00
2018-09-30T01:48:04.394Z,101234.00
2018-09-30T01:50:33.476Z,101233.00
2018-09-30T01:53:02.616Z,101232.00
2018-09-30T01:55:31.754Z,101225.00
2018-09-30T01:58:00.839Z,101220.00
2018-09-30T02:00:30.592Z,101219.00
2018-09-30T02:02:59.748Z,101216.00
2018-09-30T02:05:29.432Z,101214.00
2018-09-30T02:07:59.117Z,101199.00
2018-09-30T02:10:28.262Z,101204.00
2018-09-30T02:12:57.386Z,101195.00
2018-09-30T02:15:26.536Z,101197.00
2018-09-30T02:17:55.748Z,101190.00
2018-09-30T02:20:25.230Z,101185.00
2018-09-30T02:22:54.672Z,101178.00
2018-09-30T02:25:24.005Z,101175.00
2018-09-30T02:27:53.120Z,101171.00
2018-09-30T02:30:22.237Z,101176.00
2018-09-30T02:32:51.403Z,101165.00
2018-09-30T02:35:20.690Z,101164.00
2018-09-30T02:37:49.881Z,101164.00
2018-09-30T02:40:19.248Z,101028.00
2018-09-30T02:42:48.735Z,101159.00
2018-09-30T02:45:18.091Z,101154.00
2018-09-30T02:47:47.567Z,101153.00
2018-09-30T02:50:17.278Z,101153.00
2018-09-30T02:52:46.859Z,101151.00
2018-09-30T02:55:16.001Z,101142.00
2018-09-30T02:57:45.401Z,101144.00
2018-09-30T03:00:15.201Z,101136.00
2018-09-30T03:02:44.285Z,101132.00
2018-09-30T03:05:13.309Z,101134.00
2018-09-30T03:07:47.574Z,101125.00
2018-09-30T03:10:16.607Z,101122.00
2018-09-30T03:12:45.714Z,101129.00
2018-09-30T03:15:14.837Z,101122.00
2018-09-30T03:17:44.876Z,101126.00
2018-09-30T03:20:14.385Z,101128.00
2018-09-30T03:22:43.557Z,101119.00
2018-09-30T03:25:12.622Z,101116.00
2018-09-30T03:27:41.761Z,101119.00
2018-09-30T03:30:10.946Z,101121.00
2018-09-30T03:32:39.956Z,101121.00
2018-09-30T03:35:09.097Z,101103.00
2018-09-30T03:37:38.156Z,101112.00
2018-09-30T03:40:07.184Z,101104.00
2018-09-30T03:42:36.228Z,101096.00
2018-09-30T03:45:05.240Z,101100.00
2018-09-30T03:47:34.337Z,101091.00
2018-09-30T03:50:03.432Z,101090.00
2018-09-30T03:52:32.546Z,101087.00
2018-09-30T03:55:01.630Z,101077.00
2018-09-30T03:57:30.829Z,101088.00
2018-09-30T03:59:59.994Z,101079.00
2018-09-30T04:02:29.470Z,101076.00
2018-09-30T04:04:58.619Z,101076.00
2018-09-30T04:07:28.379Z,101070.00
2018-09-30T04:09:57.491Z,101072.00
2018-09-30T04:12:26.616Z,101064.00
2018-09-30T04:14:55.835Z,101069.00
2018-09-30T04:17:25.305Z,101065.00
2018-09-30T04:19:54.372Z,101066.00
2018-09-30T04:22:23.465Z,101066.00
2018-09-30T04:24:52.640Z,101056.00
2018-09-30T04:27:21.789Z,101057.00
2018-09-30T04:29:50.830Z,101043.00
2018-09-30T04:32:19.913Z,101052.00
2018-09-30T04:34:49.063Z,101048.00
2018-09-30T04:37:18.165Z,101045.00
2018-09-30T04:39:47.242Z,101044.00
2018-09-30T04:42:16.321Z,101049.00
2018-09-30T04:44:45.397Z,101041.00
2018-09-30T04:47:14.452Z,101041.00
2018-09-30T04:49:44.042Z,101029.00
2018-09-30T04:52:13.808Z,101029.00
2018-09-30T04:54:42.976Z,101030.00
2018-09-30T04:57:12.064Z,101036.00
2018-09-30T04:59:41.210Z,101030.00
2018-09-30T05:02:10.369Z,101024.00
2018-09-30T05:04:39.638Z,101010.00
2018-09-30T05:07:08.825Z,101020.00
2018-09-30T05:09:38.011Z,101025.00
2018-09-30T05:12:07.207Z,101036.00
2018-09-30T05:14:36.321Z,101022.00
2018-09-30T05:17:05.440Z,101016.00
2018-09-30T05:19:34.469Z,101012.00
2018-09-30T05:22:07.083Z,101011.00
2018-09-30T05:24:37.539Z,101017.00
2018-09-30T05:27:06.753Z,101010.00
2018-09-30T05:29:36.169Z,101008.00
2018-09-30T05:32:06.421Z,101004.00
2018-09-30T05:34:36.111Z,101002.00
2018-09-30T05:37:05.220Z,101006.00
2018-09-30T05:39:34.704Z,101001.00
2018-09-30T05:42:03.833Z,100998.00
2018-09-30T05:44:32.873Z,101003.00
2018-09-30T05:47:01.990Z,101003.00
2018-09-30T05:49:31.093Z,101005.00
2018-09-30T05:52:00.549Z,101011.00
2018-09-30T05:54:29.626Z,101004.00
2018-09-30T05:56:58.995Z,101005.00
2018-09-30T05:59:29.897Z,101002.00
2018-09-30T06:01:59.065Z,101005.00
2018-09-30T06:04:28.517Z,101002.00
2018-09-30T06:06:57.679Z,100998.00
2018-09-30T06:09:26.774Z,100997.00
2018-09-30T06:11:55.777Z,100999.00
2018-09-30T06:14:24.939Z,100994.00
2018-09-30T06:16:54.125Z,100993.00
2018-09-30T06:19:23.244Z,100999.00
2018-09-30T06:21:52.418Z,100987.00
2018-09-30T06:24:21.492Z,100984.00
2018-09-30T06:26:50.700Z,100983.00
2018-09-30T06:29:20.953Z,100982.00
2018-09-30T06:31:50.031Z,100989.00
2018-09-30T06:34:19.075Z,100982.00
2018-09-30T06:36:49.514Z,100976.00
2018-09-30T06:39:18.639Z,100982.00
2018-09-30T06:41:47.680Z,100973.00
2018-09-30T06:44:16.795Z,100979.00
2018-09-30T06:46:47.380Z,100972.00
2018-09-30T06:49:16.584Z,100971.00
2018-09-30T06:51:45.653Z,100967.00
2018-09-30T06:54:15.058Z,100966.00
2018-09-30T06:56:44.180Z,100968.00
2018-09-30T06:59:15.910Z,100969.00
2018-09-30T07:01:45.095Z,100966.00
2018-09-30T07:04:14.183Z,100973.00
2018-09-30T07:06:43.282Z,100978.00
2018-09-30T07:09:12.364Z,100975.00
2018-09-30T07:11:41.425Z,100985.00
2018-09-30T07:14:10.493Z,100990.00
2018-09-30T07:16:39.720Z,100987.00
2018-09-30T07:19:08.776Z,100985.00
2018-09-30T07:21:38.520Z,100985.00
2018-09-30T07:24:07.958Z,100973.00
2018-09-30T07:26:37.363Z,100968.00
2018-09-30T07:29:06.500Z,100965.00
2018-09-30T07:31:44.838Z,100957.00
2018-09-30T07:34:14.060Z,100951.00
2018-09-30T07:36:43.154Z,100955.00
2018-09-30T07:39:12.612Z,100947.00
2018-09-30T07:41:42.424Z,100952.00
2018-09-30T07:44:14.704Z,100958.00
2018-09-30T07:46:44.031Z,100948.00
2018-09-30T07:49:13.150Z,100943.00
2018-09-30T07:51:42.250Z,100948.00
2018-09-30T07:54:11.294Z,100950.00
2018-09-30T07:56:40.398Z,100953.00
2018-09-30T07:59:09.683Z,100956.00
2018-09-30T08:01:39.673Z,100964.00
2018-09-30T08:04:09.813Z,100966.00
2018-09-30T08:06:40.703Z,100959.00
2018-09-30T08:09:10.656Z,100963.00
2018-09-30T08:11:40.369Z,100955.00
2018-09-30T08:14:09.563Z,100948.00
2018-09-30T08:16:39.729Z,100943.00
2018-09-30T08:19:08.921Z,100936.00
2018-09-30T08:21:38.192Z,100938.00
2018-09-30T08:24:07.386Z,100949.00
2018-09-30T08:26:36.763Z,100939.00
2018-09-30T08:29:06.339Z,100954.00
2018-09-30T08:31:35.415Z,100958.00
2018-09-30T08:34:06.948Z,100944.00
2018-09-30T08:36:36.103Z,100951.00
2018-09-30T08:39:07.328Z,100943.00
2018-09-30T08:41:36.509Z,100941.00
2018-09-30T08:44:05.662Z,100947.00
2018-09-30T08:46:52.819Z,100948.00
2018-09-30T08:49:21.990Z,100941.00
2018-09-30T08:51:51.221Z,100942.00
2018-09-30T08:54:20.807Z,100941.00
2018-09-30T08:56:49.896Z,100928.00
2018-09-30T08:59:41.783Z,100927.00
2018-09-30T09:02:18.409Z,100928.00
2018-09-30T09:04:47.606Z,100937.00
2018-09-30T09:07:16.992Z,100928.00
2018-09-30T09:09:47.529Z,100927.00
2018-09-30T09:12:16.633Z,100925.00
2018-09-30T09:14:46.689Z,100921.00
2018-09-30T09:20:20.512Z,100926.00
2018-09-30T09:22:50.224Z,100909.00
2018-09-30T09:25:19.923Z,100916.00
2018-09-30T09:27:49.127Z,100916.00
2018-09-30T09:30:18.308Z,100922.00
2018-09-30T09:32:47.558Z,100898.00
2018-09-30T09:35:16.734Z,100903.00
2018-09-30T09:37:45.919Z,100887.00
2018-09-30T09:40:17.493Z,100902.00
2018-09-30T09:42:46.890Z,100879.00
2018-09-30T09:45:16.028Z,100880.00
2018-09-30T09:47:53.954Z,100881.00
2018-09-30T09:50:23.372Z,100874.00
2018-09-30T09:52:52.856Z,100861.00
2018-09-30T09:55:22.118Z,100854.00
2018-09-30T09:57:57.645Z,100865.00
2018-09-30T10:00:42.308Z,100857.00
2018-09-30T10:03:31.342Z,100854.00
2018-09-30T10:19:38.787Z,100848.00
2018-09-30T10:22:09.656Z,100844.00
2018-09-30T10:24:59.667Z,100844.00
2018-09-30T10:30:37.531Z,100837.00
2018-09-30T10:36:43.700Z,100824.00
2018-09-30T10:39:44.755Z,100817.00
2018-09-30T10:47:07.421Z,100812.00
2018-09-30T10:49:42.410Z,100807.00
2018-09-30T10:52:14.376Z,100802.00
2018-09-30T10:54:46.904Z,100798.00
2018-09-30T11:01:10.244Z,100784.00
2018-09-30T11:04:07.061Z,100787.00
2018-09-30T11:06:37.131Z,100785.00
2018-09-30T11:23:21.978Z,100764.00
2018-09-30T11:25:53.862Z,100751.00
2018-09-30T11:28:22.992Z,100755.00
2018-09-30T11:31:05.271Z,100753.00
2018-09-30T11:33:34.465Z,100754.00
2018-09-30T11:36:03.584Z,100751.00
2018-09-30T11:38:34.015Z,100748.00
2018-09-30T11:41:08.756Z,100740.00
2018-09-30T11:43:39.442Z,100736.00
2018-09-30T11:46:09.193Z,100743.00
2018-09-30T11:48:38.738Z,100747.00
2018-09-30T11:51:11.796Z,100737.00
2018-09-30T11:53:42.048Z,100730.00
2018-09-30T11:56:18.733Z,100736.00
2018-09-30T11:58:52.167Z,100724.00
2018-09-30T12:01:25.590Z,100716.00
2018-09-30T12:04:21.037Z,100714.00
2018-09-30T12:14:20.615Z,100715.00
2018-09-30T12:17:15.595Z,100700.00
2018-09-30T12:22:50.863Z,100699.00
2018-09-30T12:25:20.637Z,100692.00
2018-09-30T12:27:50.951Z,100713.00
2018-09-30T12:30:53.607Z,100691.00
2018-09-30T12:33:48.918Z,100692.00
2018-09-30T12:44:57.378Z,100667.00
2018-09-30T12:59:54.896Z,100654.00
2018-09-30T13:05:39.792Z,100650.00
2018-09-30T13:08:26.558Z,100650.00
2018-09-30T13:11:07.383Z,100655.00
2018-09-30T13:13:37.469Z,100649.00
2018-09-30T13:16:06.718Z,100639.00
2018-09-30T13:18:37.869Z,100641.00
2018-09-30T13:21:07.142Z,100644.00
2018-09-30T13:23:42.090Z,100637.00
2018-09-30T13:26:12.398Z,100633.00
2018-09-30T13:28:42.222Z,100633.00
2018-09-30T13:31:30.916Z,100641.00
2018-09-30T13:34:00.114Z,100641.00
2018-09-30T13:36:52.761Z,100640.00
2018-09-30T13:39:22.388Z,100629.00
2018-09-30T13:41:51.785Z,100634.00
2018-09-30T13:44:20.859Z,100628.00
2018-09-30T13:46:49.938Z,100626.00
2018-09-30T13:49:19.265Z,100631.00
2018-09-30T13:51:48.529Z,100615.00
2018-09-30T13:54:17.743Z,100627.00
2018-09-30T13:56:47.031Z,100621.00
2018-09-30T13:59:16.227Z,100621.00
2018-09-30T14:01:45.591Z,100610.00
2018-09-30T14:04:14.767Z,100617.00
2018-09-30T14:06:44.157Z,100619.00
2018-09-30T14:09:14.031Z,100618.00
2018-09-30T14:11:43.217Z,100615.00
2018-09-30T14:14:13.125Z,100608.00
2018-09-30T14:16:42.483Z,100608.00
2018-09-30T14:19:11.752Z,100612.00
2018-09-30T14:21:41.896Z,100608.00
2018-09-30T14:24:11.267Z,100607.00
2018-09-30T14:26:52.263Z,100603.00
2018-09-30T14:29:21.758Z,100602.00
2018-09-30T14:31:54.627Z,100604.00
2018-09-30T14:34:23.813Z,100601.00
2018-09-30T14:36:53.941Z,100596.00
2018-09-30T14:39:23.092Z,100599.00
2018-09-30T14:41:52.971Z,100598.00
2018-09-30T14:44:23.034Z,100595.00
2018-09-30T14:46:52.106Z,100594.00
2018-09-30T14:49:21.289Z,100595.00
2018-09-30T14:51:50.570Z,100580.00
2018-09-30T14:54:20.572Z,100586.00
2018-09-30T14:56:50.413Z,100583.00
2018-09-30T14:59:22.523Z,100598.00
2018-09-30T15:01:54.279Z,100595.00
2018-09-30T15:04:25.747Z,100594.00
2018-09-30T15:06:54.876Z,100594.00
2018-09-30T15:09:27.484Z,100591.00
2018-09-30T15:12:01.102Z,100590.00
2018-09-30T15:14:33.387Z,100579.00
2018-09-30T15:17:04.139Z,100576.00
2018-09-30T15:19:33.374Z,100576.00
2018-09-30T15:22:04.728Z,100574.00
2018-09-30T15:24:34.590Z,100571.00
2018-09-30T15:27:04.589Z,100564.00
2018-09-30T15:29:33.702Z,100561.00
2018-09-30T15:32:04.314Z,100558.00
2018-09-30T15:34:34.778Z,100560.00
2018-09-30T15:37:04.958Z,100562.00
2018-09-30T15:39:34.552Z,100556.00
2018-09-30T15:42:04.211Z,100552.00
2018-09-30T15:44:33.837Z,100557.00
2018-09-30T15:47:03.075Z,100550.00
2018-09-30T15:49:35.197Z,100551.00
2018-09-30T15:52:08.840Z,100551.00
2018-09-30T15:54:37.992Z,100560.00
2018-09-30T15:57:08.202Z,100549.00
2018-09-30T15:59:38.349Z,100546.00
2018-09-30T16:02:21.933Z,100546.00
2018-09-30T16:05:23.377Z,100550.00
2018-09-30T16:07:56.968Z,100554.00
2018-09-30T16:10:26.691Z,100553.00
2018-09-30T16:12:56.271Z,100553.00
2018-09-30T16:15:25.431Z,100558.00
2018-09-30T16:17:55.040Z,100549.00
2018-09-30T16:20:24.411Z,100547.00
2018-09-30T16:23:00.468Z,100543.00
2018-09-30T16:25:29.738Z,100548.00
2018-09-30T16:28:00.498Z,100539.00
2018-09-30T16:30:40.507Z,100551.00
2018-09-30T16:33:11.535Z,100545.00
2018-09-30T16:35:41.505Z,100547.00
2018-09-30T16:38:10.967Z,100544.00
2018-09-30T16:40:40.640Z,100541.00
2018-09-30T16:43:09.903Z,100544.00
2018-09-30T16:45:52.931Z,100552.00
2018-09-30T16:48:23.664Z,100545.00
2018-09-30T16:50:52.850Z,100545.00
2018-09-30T16:53:21.977Z,100544.00
2018-09-30T16:55:52.259Z,100544.00
2018-09-30T16:58:42.974Z,100548.00
2018-09-30T17:01:13.779Z,100547.00
2018-09-30T17:03:43.215Z,100552.00
2018-09-30T17:06:12.508Z,100547.00
2018-09-30T17:08:41.739Z,100543.00
2018-09-30T17:11:23.629Z,100548.00
2018-09-30T17:13:52.901Z,100555.00
2018-09-30T17:16:22.114Z,100561.00
2018-09-30T17:18:51.263Z,100553.00
2018-09-30T17:21:20.412Z,100565.00
2018-09-30T17:23:49.668Z,100568.00
2018-09-30T17:26:18.921Z,100568.00
2018-09-30T17:28:48.975Z,100566.00
2018-09-30T17:31:18.271Z,100573.00
2018-09-30T17:33:47.380Z,100575.00
2018-09-30T17:36:16.567Z,100577.00
2018-09-30T17:38:45.905Z,100581.00
2018-09-30T17:41:20.337Z,100574.00
2018-09-30T17:43:49.683Z,100572.00
2018-09-30T17:46:45.253Z,100576.00
2018-09-30T17:49:14.627Z,100573.00
2018-09-30T17:51:44.189Z,100571.00
2018-09-30T17:54:14.593Z,100575.00
2018-09-30T17:56:44.397Z,100574.00
2018-09-30T17:59:13.720Z,100568.00
2018-09-30T18:01:43.484Z,100568.00
2018-09-30T18:04:43.349Z,100573.00
2018-09-30T18:07:12.775Z,100570.00
2018-09-30T18:09:41.916Z,100571.00
2018-09-30T18:12:12.027Z,100574.00
2018-09-30T18:14:45.694Z,100566.00
2018-09-30T18:17:16.336Z,100561.00
2018-09-30T18:19:45.993Z,100565.00
2018-09-30T18:22:15.556Z,100570.00
2018-09-30T18:24:45.273Z,100562.00
2018-09-30T18:27:14.515Z,100561.00
2018-09-30T18:29:48.294Z,100556.00
2018-09-30T18:32:18.470Z,100557.00
2018-09-30T18:34:47.883Z,100558.00
2018-09-30T18:37:17.352Z,100548.00
2018-09-30T18:43:20.370Z,100545.00
2018-09-30T18:46:21.036Z,100550.00
2018-09-30T18:51:33.126Z,100544.00
2018-09-30T18:54:02.454Z,100546.00
2018-09-30T18:56:31.853Z,100545.00
2018-09-30T18:59:01.206Z,100544.00
2018-09-30T19:02:22.979Z,100538.00
2018-09-30T19:04:52.432Z,100535.00
2018-09-30T19:07:25.248Z,100527.00
2018-09-30T19:09:56.774Z,100529.00
2018-09-30T19:12:26.386Z,100519.00
2018-09-30T19:14:56.423Z,100519.00
2018-09-30T19:17:25.845Z,100518.00
2018-09-30T19:22:44.920Z,100508.00
2018-09-30T19:25:14.297Z,100516.00
2018-09-30T19:27:56.924Z,100512.00
2018-09-30T19:30:57.412Z,100507.00
2018-09-30T19:33:33.126Z,100501.00
2018-09-30T19:36:04.260Z,100509.00
2018-09-30T19:39:15.800Z,100505.00
2018-09-30T19:41:48.671Z,100506.00
2018-09-30T19:44:17.877Z,100505.00
2018-09-30T19:46:47.239Z,100507.00
2018-09-30T19:49:16.418Z,100508.00
2018-09-30T19:51:45.704Z,100507.00
2018-09-30T19:54:31.354Z,100510.00
2018-09-30T19:57:00.820Z,100509.00
2018-09-30T20:02:21.811Z,100500.00
2018-09-30T20:04:51.103Z,100503.00
2018-09-30T20:07:21.117Z,100496.00
2018-09-30T20:09:50.315Z,100498.00
2018-09-30T20:12:20.205Z,100493.00
2018-09-30T20:14:49.418Z,100488.00
2018-09-30T20:17:18.819Z,100483.00
2018-09-30T20:19:47.996Z,100485.00
2018-09-30T20:22:19.441Z,100480.00
2018-09-30T20:24:48.677Z,100477.00
2018-09-30T20:27:18.283Z,100471.00
2018-09-30T20:29:47.707Z,100466.00
2018-09-30T20:32:37.837Z,100470.00
2018-09-30T20:36:06.704Z,100469.00
2018-09-30T20:38:39.333Z,100466.00
2018-09-30T20:41:08.683Z,100461.00
2018-09-30T20:44:20.764Z,100448.00
2018-09-30T20:47:18.131Z,100456.00
2018-09-30T20:49:48.583Z,100455.00
2018-09-30T20:52:19.516Z,100454.00
2018-09-30T20:54:48.700Z,100446.00
2018-09-30T20:58:04.909Z,100447.00
2018-09-30T21:00:34.347Z,100453.00
2018-09-30T21:03:03.523Z,100450.00
2018-09-30T21:06:40.374Z,100442.00
2018-09-30T21:09:13.522Z,100462.00
2018-09-30T21:11:42.727Z,100462.00
2018-09-30T21:14:12.881Z,100459.00
2018-09-30T21:16:44.168Z,100462.00
2018-09-30T21:21:54.868Z,100453.00
2018-09-30T21:24:24.264Z,100454.00
2018-09-30T21:26:53.551Z,100450.00
2018-09-30T21:29:55.888Z,100441.00
2018-09-30T21:32:25.337Z,100441.00
2018-09-30T21:38:10.764Z,100438.00
2018-09-30T21:43:43.438Z,100440.00
2018-09-30T21:46:12.667Z,100438.00
2018-09-30T21:48:41.915Z,100441.00
2018-09-30T21:51:19.393Z,100438.00
2018-09-30T21:54:51.657Z,100434.00
2018-09-30T21:57:49.886Z,100428.00
2018-09-30T22:00:24.539Z,100432.00
2018-09-30T22:02:57.749Z,100432.00
2018-09-30T22:08:51.415Z,100432.00
2018-09-30T22:15:03.705Z,100414.00
2018-09-30T22:23:54.162Z,100409.00
2018-09-30T22:26:28.609Z,100405.00
2018-09-30T22:29:23.245Z,100407.00
2018-09-30T22:32:01.697Z,100405.00
2018-09-30T22:35:07.972Z,100404.00
2018-09-30T22:37:49.763Z,100405.00
2018-09-30T22:40:32.393Z,100392.00
2018-09-30T22:43:27.217Z,100399.00
2018-09-30T22:49:14.036Z,100389.00
2018-09-30T22:51:43.292Z,100397.00
2018-09-30T22:57:12.754Z,100382.00
2018-09-30T23:00:00.263Z,100383.00
2018-09-30T23:02:31.670Z,100369.00
2018-09-30T23:05:01.480Z,100367.00
2018-09-30T23:07:31.241Z,100370.00
2018-09-30T23:34:41.506Z,100377.00
2018-09-30T23:37:10.974Z,100375.00
2018-09-30T23:39:40.200Z,100376.00
2018-09-30T23:45:10.055Z,100372.00
2018-09-30T23:47:39.379Z,100363.00
2018-09-30T23:53:19.905Z,100359.00
2018-09-30T23:56:09.137Z,100356.00
2018-09-30T23:59:08.928Z,100353.00
